Terminal Aerodrome Forecast
Issued by NWS

Home | Current Version | Previous Version | Text Only | Print | Product List | Glossary On
Versions: 1 2 3 4 5 6 7 8 9 10 11 12 13
000
FTUS44 KEPZ 310500
TAFTCS
TAF
KTCS 310525Z 3106/0106 15004KT 6SM -RA OVC009
     FM311200 12003KT 6SM -SHRA OVC015
      TEMPO 3112/3115 2SM BR OVC005
     FM311500 15003KT P6SM VCSH BKN015 BKN080
     FM010400 30006KT P6SM BKN020 OVC080=

USA.gov is the U.S. government's official web portal to all federal, state and local government web resources and services.